createdAt,value
2018-02-04T08:33:48.741Z,1003.02
2018-02-04T08:34:48.609Z,1003.06
2018-02-04T08:35:48.567Z,1003.06
2018-02-04T08:36:48.544Z,1003.12
2018-02-04T08:37:48.533Z,1003.13
2018-02-04T08:38:48.499Z,1003.16
2018-02-04T08:39:48.467Z,1003.13
2018-02-04T08:40:48.438Z,1003.18
2018-02-04T08:41:48.433Z,1003.15
2018-02-04T08:42:48.375Z,1003.18
2018-02-04T08:43:48.353Z,1003.22
2018-02-04T08:44:48.325Z,1003.24
2018-02-04T08:45:48.296Z,1003.30
2018-02-04T08:46:48.286Z,1003.28
2018-02-04T08:47:48.266Z,1003.32
2018-02-04T08:48:48.219Z,1003.30
2018-02-04T08:49:48.204Z,1003.36
2018-02-04T08:50:48.175Z,1003.38
2018-02-04T08:51:48.143Z,1003.34
2018-02-04T08:52:48.139Z,1003.32
2018-02-04T08:53:48.090Z,1003.36
2018-02-04T08:54:48.100Z,1003.35
2018-02-04T08:55:48.059Z,1003.39
2018-02-04T08:56:48.015Z,1003.41
2018-02-04T08:57:47.995Z,1003.41
2018-02-04T08:58:47.966Z,1003.44
2018-02-04T08:59:47.942Z,1003.46
2018-02-04T09:00:47.915Z,1003.49
2018-02-04T09:01:47.887Z,1003.47
2018-02-04T09:02:47.864Z,1003.55
2018-02-04T09:03:47.834Z,1003.54
2018-02-04T09:04:47.808Z,1003.56
2018-02-04T09:05:47.787Z,1003.59
2018-02-04T09:06:47.765Z,1003.58
2018-02-04T09:07:47.734Z,1003.58
2018-02-04T09:08:47.720Z,1003.58
2018-02-04T09:09:47.710Z,1003.57
2018-02-04T09:10:47.661Z,1003.61
2018-02-04T09:11:47.639Z,1003.58
2018-02-04T09:12:47.610Z,1003.56
2018-02-04T09:13:47.615Z,1003.60
2018-02-04T09:14:47.577Z,1003.59
2018-02-04T09:15:47.534Z,1003.64
2018-02-04T09:16:47.523Z,1003.66
2018-02-04T09:17:47.498Z,1003.69
2018-02-04T09:18:47.459Z,1003.65
2018-02-04T09:19:47.433Z,1003.68
2018-02-04T09:20:47.410Z,1003.70
2018-02-04T09:21:47.397Z,1003.72
2018-02-04T09:22:47.363Z,1003.75
2018-02-04T09:23:47.348Z,1003.77
2018-02-04T09:24:47.313Z,1003.74
2018-02-04T09:25:47.286Z,1003.77
2018-02-04T09:26:47.313Z,1003.83
2018-02-04T09:27:47.245Z,1003.82
2018-02-04T09:28:47.241Z,1003.82
2018-02-04T09:29:47.185Z,1003.83
2018-02-04T09:30:47.162Z,1003.83
2018-02-04T09:31:47.186Z,1003.83
2018-02-04T09:32:47.113Z,1003.88
2018-02-04T09:33:47.116Z,1003.85
2018-02-04T09:34:47.083Z,1003.86
2018-02-04T09:35:47.055Z,1003.87
2018-02-04T09:36:47.012Z,1003.92
2018-02-04T09:37:46.989Z,1003.91
2018-02-04T09:38:46.966Z,1003.97
2018-02-04T09:39:46.954Z,1003.98
2018-02-04T09:40:46.938Z,1004.03
2018-02-04T09:41:47.231Z,1004.01
2018-02-04T09:42:46.875Z,1003.97
2018-02-04T09:43:46.839Z,1003.98
2018-02-04T09:44:46.846Z,1003.99
2018-02-04T09:45:47.718Z,1004.03
2018-02-04T09:46:48.124Z,1004.01
2018-02-04T09:47:46.740Z,1004.00
2018-02-04T09:48:46.723Z,1004.00
2018-02-04T09:49:46.696Z,1004.03
2018-02-04T09:50:46.666Z,1004.06
2018-02-04T09:51:46.672Z,1004.04
2018-02-04T09:52:46.621Z,1004.02
2018-02-04T09:53:46.594Z,1004.04
2018-02-04T09:54:46.570Z,1004.02
2018-02-04T09:55:46.549Z,1004.07
2018-02-04T09:56:46.669Z,1004.12
2018-02-04T09:57:46.494Z,1004.06
2018-02-04T09:58:46.511Z,1004.07
2018-02-04T09:59:46.445Z,1004.10
2018-02-04T10:00:46.425Z,1004.08
2018-02-04T10:01:46.418Z,1004.08
2018-02-04T10:02:46.377Z,1004.10
2018-02-04T10:03:46.351Z,1004.16
2018-02-04T10:04:46.335Z,1004.18
2018-02-04T10:05:46.299Z,1004.19
2018-02-04T10:06:46.292Z,1004.22
2018-02-04T10:07:46.265Z,1004.22
2018-02-04T10:08:46.223Z,1004.25
2018-02-04T10:09:46.201Z,1004.27
2018-02-04T10:10:46.191Z,1004.30
2018-02-04T10:11:46.148Z,1004.32
2018-02-04T10:12:46.128Z,1004.34
2018-02-04T10:13:46.100Z,1004.34
2018-02-04T10:14:46.120Z,1004.37
2018-02-04T10:15:46.096Z,1004.33
2018-02-04T10:16:46.046Z,1004.36
2018-02-04T10:17:46.010Z,1004.40
2018-02-04T10:18:45.986Z,1004.42
2018-02-04T10:19:45.964Z,1004.41
2018-02-04T10:20:45.934Z,1004.40
2018-02-04T10:21:45.924Z,1004.43
2018-02-04T10:22:45.887Z,1004.47
2018-02-04T10:23:45.866Z,1004.44
2018-02-04T10:24:45.836Z,1004.47
2018-02-04T10:25:45.812Z,1004.49
2018-02-04T10:26:45.789Z,1004.46
2018-02-04T10:27:54.426Z,1004.44
2018-02-04T10:29:40.147Z,1004.54
2018-02-04T10:30:40.094Z,1004.46
2018-02-04T10:31:40.085Z,1004.45
2018-02-04T10:34:03.197Z,1004.44
2018-02-04T10:35:03.025Z,1004.46
2018-02-04T10:36:03.006Z,1004.47
2018-02-04T10:37:02.980Z,1004.49
2018-02-04T10:38:02.950Z,1004.48
2018-02-04T10:39:10.841Z,1004.47
2018-02-04T10:41:05.046Z,1004.46
2018-02-04T10:41:57.267Z,1004.51
2018-02-04T10:44:01.687Z,1004.53
2018-02-04T10:44:51.563Z,1004.57
2018-02-04T10:45:51.544Z,1004.56
2018-02-04T10:46:51.538Z,1004.53
2018-02-04T10:47:51.510Z,1004.53
2018-02-04T10:48:51.471Z,1004.57
2018-02-04T10:49:51.448Z,1004.61
2018-02-04T10:50:51.427Z,1004.61
2018-02-04T10:51:51.403Z,1004.58
2018-02-04T10:52:51.518Z,1004.57
2018-02-04T10:53:51.419Z,1004.59
2018-02-04T10:54:51.329Z,1004.61
2018-02-04T10:55:51.510Z,1004.62
2018-02-04T10:56:51.288Z,1004.59
2018-02-04T10:57:51.246Z,1004.60
2018-02-04T10:58:51.217Z,1004.60
2018-02-04T10:59:51.199Z,1004.61
2018-02-04T11:00:51.197Z,1004.62
2018-02-04T11:01:51.150Z,1004.64
2018-02-04T11:04:15.812Z,1004.67
2018-02-04T11:05:14.157Z,1004.71
2018-02-04T11:06:14.129Z,1004.70
2018-02-04T11:07:14.114Z,1004.74
2018-02-04T11:08:14.082Z,1004.75
2018-02-04T11:09:14.055Z,1004.74
2018-02-04T11:10:14.029Z,1004.78
2018-02-04T11:11:14.008Z,1004.77
2018-02-04T11:12:14.016Z,1004.75
2018-02-04T11:13:13.966Z,1004.77
2018-02-04T11:14:13.936Z,1004.81
2018-02-04T11:15:13.908Z,1004.83
2018-02-04T11:16:13.891Z,1004.88
2018-02-04T11:17:13.857Z,1004.85
2018-02-04T11:18:13.837Z,1004.87
2018-02-04T11:19:13.837Z,1004.92
2018-02-04T11:20:13.787Z,1004.93
2018-02-04T11:21:13.765Z,1004.92
2018-02-04T11:22:13.741Z,1004.94
2018-02-04T11:23:13.716Z,1004.96
2018-02-04T11:24:13.694Z,1004.98
2018-02-04T11:25:13.672Z,1004.97
2018-02-04T11:26:13.639Z,1004.99
2018-02-04T11:27:13.622Z,1004.99
2018-02-04T11:28:13.588Z,1004.96
2018-02-04T11:29:13.593Z,1004.93
2018-02-04T11:30:13.553Z,1004.99
2018-02-04T11:31:13.754Z,1005.03
2018-02-04T11:32:13.495Z,1005.06
2018-02-04T11:33:13.465Z,1005.06
2018-02-04T11:34:13.451Z,1005.10
2018-02-04T11:35:13.417Z,1005.10
2018-02-04T11:36:13.604Z,1005.14
2018-02-04T11:37:13.503Z,1005.19
2018-02-04T11:38:13.407Z,1005.19
2018-02-04T11:39:13.734Z,1005.17
2018-02-04T11:40:13.320Z,1005.22
2018-02-04T11:41:13.268Z,1005.20
2018-02-04T11:42:13.243Z,1005.22
2018-02-04T11:43:13.219Z,1005.20
2018-02-04T11:44:13.193Z,1005.17
2018-02-04T11:45:13.174Z,1005.17
2018-02-04T11:46:13.148Z,1005.14
2018-02-04T11:47:13.168Z,1005.20
2018-02-04T11:48:13.100Z,1005.21
2018-02-04T11:49:13.089Z,1005.22
2018-02-04T11:50:13.060Z,1005.18
2018-02-04T11:51:13.021Z,1005.21
2018-02-04T11:52:13.032Z,1005.29
2018-02-04T11:53:12.998Z,1005.31
2018-02-04T11:54:12.964Z,1005.33
2018-02-04T11:55:12.929Z,1005.35
2018-02-04T11:56:12.908Z,1005.39
2018-02-04T11:57:12.879Z,1005.41
2018-02-04T11:58:12.929Z,1005.39
2018-02-04T11:59:12.843Z,1005.42
2018-02-04T12:00:12.823Z,1005.43
2018-02-04T12:01:12.786Z,1005.43
2018-02-04T12:02:12.759Z,1005.42
2018-02-04T12:03:12.734Z,1005.44
2018-02-04T12:04:12.706Z,1005.44
2018-02-04T12:05:12.709Z,1005.43
2018-02-04T12:06:12.662Z,1005.48
2018-02-04T12:07:12.638Z,1005.50
2018-02-04T12:08:12.622Z,1005.51
2018-02-04T12:09:12.586Z,1005.50
2018-02-04T12:10:12.567Z,1005.55
2018-02-04T12:11:12.547Z,1005.53
2018-02-04T12:13:13.368Z,1005.60
2018-02-04T12:14:12.486Z,1005.62
2018-02-04T12:15:12.449Z,1005.68
2018-02-04T12:16:12.545Z,1005.67
2018-02-04T12:17:12.418Z,1005.67
2018-02-04T12:18:12.528Z,1005.65
2018-02-04T12:19:12.353Z,1005.68
2018-02-04T12:20:12.328Z,1005.72
2018-02-04T12:21:12.337Z,1005.71
2018-02-04T12:22:12.276Z,1005.73
2018-02-04T12:23:12.283Z,1005.72
2018-02-04T12:24:12.292Z,1005.72
2018-02-04T12:25:12.213Z,1005.74
2018-02-04T12:26:12.187Z,1005.75
2018-02-04T12:27:19.834Z,1005.78
2018-02-04T12:29:16.608Z,1005.82
2018-02-04T12:30:06.563Z,1005.79
2018-02-04T12:31:06.465Z,1005.87
2018-02-04T12:32:06.541Z,1005.85
2018-02-04T12:33:07.026Z,1005.89
2018-02-04T12:34:06.391Z,1005.88
2018-02-04T12:35:06.811Z,1005.91
2018-02-04T12:36:06.545Z,1005.93
2018-02-04T12:37:06.445Z,1005.91
2018-02-04T12:38:06.296Z,1005.94
2018-02-04T12:39:06.342Z,1005.94
2018-02-04T12:40:06.818Z,1005.97
2018-02-04T12:41:07.037Z,1006.00
2018-02-04T12:42:06.194Z,1006.03
2018-02-04T12:43:06.167Z,1006.05
2018-02-04T12:44:06.141Z,1006.00
2018-02-04T12:45:06.122Z,1006.03
2018-02-04T12:46:06.117Z,1006.05
2018-02-04T12:47:06.071Z,1006.07
2018-02-04T12:48:06.060Z,1006.04
2018-02-04T12:49:06.028Z,1006.01
2018-02-04T12:50:06.810Z,1006.01
2018-02-04T12:51:05.983Z,1006.09
2018-02-04T12:52:06.139Z,1006.07
2018-02-04T12:53:05.931Z,1006.06
2018-02-04T12:54:06.331Z,1006.01
2018-02-04T12:55:05.982Z,1006.06
2018-02-04T12:56:06.014Z,1006.03
2018-02-04T12:57:05.835Z,1006.04
2018-02-04T12:58:05.924Z,1006.03
2018-02-04T12:59:05.781Z,1006.07
2018-02-04T13:00:06.237Z,1006.06
2018-02-04T13:01:06.075Z,1006.08
2018-02-04T13:02:05.711Z,1006.07
2018-02-04T13:03:05.985Z,1006.11
2018-02-04T13:04:05.703Z,1006.05
2018-02-04T13:05:05.668Z,1006.06
2018-02-04T13:06:05.632Z,1006.04
2018-02-04T13:07:08.291Z,1006.09
2018-02-04T13:08:05.562Z,1006.12
2018-02-04T13:09:05.547Z,1006.14
2018-02-04T13:10:05.513Z,1006.13
2018-02-04T13:11:05.491Z,1006.13
2018-02-04T13:12:05.463Z,1006.15
2018-02-04T13:13:05.444Z,1006.15
2018-02-04T13:14:05.456Z,1006.20
2018-02-04T13:15:05.475Z,1006.17
2018-02-04T13:16:05.564Z,1006.15
2018-02-04T13:17:05.346Z,1006.27
2018-02-04T13:18:05.319Z,1006.24
2018-02-04T13:19:05.315Z,1006.25
2018-02-04T13:20:05.277Z,1006.24
2018-02-04T13:21:05.453Z,1006.22
2018-02-04T13:22:05.223Z,1006.18
2018-02-04T13:23:05.301Z,1006.21
2018-02-04T13:24:05.180Z,1006.21
2018-02-04T13:25:05.155Z,1006.22
2018-02-04T13:26:05.134Z,1006.22
2018-02-04T13:27:05.103Z,1006.21
2018-02-04T13:28:05.125Z,1006.26
2018-02-04T13:29:05.119Z,1006.29
2018-02-04T13:30:05.040Z,1006.26
2018-02-04T13:31:05.016Z,1006.23
2018-02-04T13:32:04.991Z,1006.19
2018-02-04T13:33:05.021Z,1006.15
2018-02-04T13:34:04.962Z,1006.18
2018-02-04T13:35:05.204Z,1006.19
2018-02-04T13:36:04.895Z,1006.20
2018-02-04T13:37:04.870Z,1006.24
2018-02-04T13:38:04.854Z,1006.24
2018-02-04T13:39:04.861Z,1006.22
2018-02-04T13:40:04.800Z,1006.26
2018-02-04T13:41:04.932Z,1006.29
2018-02-04T13:42:04.823Z,1006.30
2018-02-04T13:43:04.736Z,1006.28
2018-02-04T13:44:04.701Z,1006.27
2018-02-04T13:45:04.681Z,1006.33
2018-02-04T13:46:04.689Z,1006.32
2018-02-04T13:47:04.640Z,1006.33
2018-02-04T13:48:04.617Z,1006.35
2018-02-04T13:49:04.626Z,1006.33
2018-02-04T13:50:04.583Z,1006.33
2018-02-04T13:51:04.548Z,1006.33
2018-02-04T13:52:04.597Z,1006.38
2018-02-04T13:53:04.526Z,1006.38
2018-02-04T13:54:04.475Z,1006.41
2018-02-04T13:55:04.460Z,1006.38
2018-02-04T13:56:04.439Z,1006.42
2018-02-04T13:57:04.401Z,1006.45
2018-02-04T13:58:04.382Z,1006.46
2018-02-04T13:59:04.350Z,1006.47
2018-02-04T14:00:04.389Z,1006.48
2018-02-04T14:01:04.317Z,1006.48
2018-02-04T14:02:04.310Z,1006.56
2018-02-04T14:03:04.253Z,1006.60
2018-02-04T14:04:04.234Z,1006.57
2018-02-04T14:05:04.244Z,1006.57
2018-02-04T14:06:04.195Z,1006.58
2018-02-04T14:07:04.194Z,1006.57
2018-02-04T14:08:04.135Z,1006.58
2018-02-04T14:09:04.113Z,1006.59
2018-02-04T14:10:04.090Z,1006.60
2018-02-04T14:11:04.120Z,1006.65
2018-02-04T14:12:04.075Z,1006.62
2018-02-04T14:13:04.025Z,1006.61
2018-02-04T14:14:04.001Z,1006.63
2018-02-04T14:15:03.973Z,1006.63
2018-02-04T14:16:04.260Z,1006.62
2018-02-04T14:17:03.928Z,1006.65
2018-02-04T14:18:04.461Z,1006.65
2018-02-04T14:19:03.905Z,1006.66
2018-02-04T14:20:03.869Z,1006.65
2018-02-04T14:21:03.834Z,1006.67
2018-02-04T14:22:03.814Z,1006.66
2018-02-04T14:23:03.893Z,1006.68
2018-02-04T14:24:03.778Z,1006.68
2018-02-04T14:25:03.734Z,1006.69
2018-02-04T14:26:03.711Z,1006.71
2018-02-04T14:27:03.679Z,1006.72
2018-02-04T14:28:03.655Z,1006.74
2018-02-04T14:29:03.645Z,1006.81
2018-02-04T14:30:03.616Z,1006.79
2018-02-04T14:31:03.595Z,1006.84
2018-02-04T14:32:03.558Z,1006.85
2018-02-04T14:33:03.546Z,1006.81
2018-02-04T14:34:03.512Z,1006.84
2018-02-04T14:35:03.507Z,1006.85
2018-02-04T14:36:03.471Z,1006.89
2018-02-04T14:37:03.447Z,1006.91
2018-02-04T14:38:03.448Z,1006.96
2018-02-04T14:39:03.442Z,1006.91
2018-02-04T14:40:03.368Z,1006.92
2018-02-04T14:41:03.361Z,1006.95
2018-02-04T14:42:03.322Z,1006.99
2018-02-04T14:43:03.329Z,1006.95
2018-02-04T14:44:03.268Z,1006.98
2018-02-04T14:45:03.242Z,1006.96
2018-02-04T14:46:03.219Z,1006.98
2018-02-04T14:47:03.201Z,1006.99
2018-02-04T14:48:03.183Z,1007.07
2018-02-04T14:49:03.169Z,1007.05
2018-02-04T14:50:03.173Z,1007.07
2018-02-04T14:51:03.097Z,1007.08
2018-02-04T14:52:03.077Z,1007.12
2018-02-04T14:53:03.049Z,1007.13
2018-02-04T14:54:03.059Z,1007.16
2018-02-04T14:55:03.034Z,1007.09
2018-02-04T14:56:02.978Z,1007.10
2018-02-04T14:57:02.983Z,1007.10
2018-02-04T14:58:02.936Z,1007.10
2018-02-04T14:59:02.910Z,1007.08
2018-02-04T15:00:02.894Z,1007.11
2018-02-04T15:01:02.856Z,1007.13
2018-02-04T15:02:02.872Z,1007.12
2018-02-04T15:03:02.807Z,1007.12
2018-02-04T15:04:02.782Z,1007.13
2018-02-04T15:05:02.757Z,1007.12
2018-02-04T15:06:02.734Z,1007.17
2018-02-04T15:07:02.733Z,1007.15
2018-02-04T15:08:02.724Z,1007.14
2018-02-04T15:09:02.660Z,1007.18
2018-02-04T15:10:02.646Z,1007.18
2018-02-04T15:11:02.621Z,1007.19
2018-02-04T15:12:02.584Z,1007.21
2018-02-04T15:13:02.581Z,1007.19
2018-02-04T15:14:02.542Z,1007.20
2018-02-04T15:15:02.521Z,1007.23
2018-02-04T15:16:02.601Z,1007.21
2018-02-04T15:17:02.468Z,1007.18
2018-02-04T15:18:02.464Z,1007.23
2018-02-04T15:19:02.420Z,1007.24
2018-02-04T15:20:02.721Z,1007.25
2018-02-04T15:21:02.368Z,1007.24
2018-02-04T15:22:02.347Z,1007.27
2018-02-04T15:23:02.327Z,1007.30
2018-02-04T15:24:02.324Z,1007.29
2018-02-04T15:25:02.295Z,1007.25
2018-02-04T15:26:02.253Z,1007.28
2018-02-04T15:27:02.230Z,1007.33
2018-02-04T15:28:02.198Z,1007.30
2018-02-04T15:29:02.178Z,1007.32
2018-02-04T15:30:02.173Z,1007.35
2018-02-04T15:31:02.117Z,1007.36
2018-02-04T15:32:02.112Z,1007.37
2018-02-04T15:33:02.644Z,1007.33
2018-02-04T15:34:02.095Z,1007.35
2018-02-04T15:35:02.040Z,1007.37
2018-02-04T15:36:02.030Z,1007.42
2018-02-04T15:37:01.987Z,1007.43
2018-02-04T15:38:01.972Z,1007.45
2018-02-04T15:39:01.935Z,1007.46
2018-02-04T15:40:01.928Z,1007.49
2018-02-04T15:41:01.880Z,1007.52
2018-02-04T15:42:01.882Z,1007.53
2018-02-04T15:43:01.855Z,1007.57
2018-02-04T15:44:01.867Z,1007.60
2018-02-04T15:45:01.806Z,1007.62
2018-02-04T15:46:01.752Z,1007.61
2018-02-04T15:47:01.730Z,1007.63
2018-02-04T15:48:01.733Z,1007.60
2018-02-04T15:49:01.700Z,1007.63
2018-02-04T15:50:01.663Z,1007.63
2018-02-04T15:51:01.628Z,1007.68
2018-02-04T15:52:01.628Z,1007.66
2018-02-04T15:53:01.586Z,1007.64
2018-02-04T15:54:01.629Z,1007.68
2018-02-04T15:55:01.533Z,1007.68
2018-02-04T15:56:01.557Z,1007.68
2018-02-04T15:57:01.496Z,1007.67
2018-02-04T15:58:01.466Z,1007.71
2018-02-04T15:59:01.443Z,1007.72
2018-02-04T16:00:01.448Z,1007.71
2018-02-04T16:01:01.417Z,1007.76
2018-02-04T16:02:01.363Z,1007.76
2018-02-04T16:03:01.345Z,1007.76
2018-02-04T16:04:01.345Z,1007.73
2018-02-04T16:05:01.318Z,1007.79
2018-02-04T16:06:01.259Z,1007.83
2018-02-04T16:07:01.233Z,1007.77
2018-02-04T16:08:01.229Z,1007.83
2018-02-04T16:09:01.184Z,1007.80
2018-02-04T16:10:01.198Z,1007.81
2018-02-04T16:11:01.141Z,1007.82
2018-02-04T16:12:01.115Z,1007.84
2018-02-04T16:13:01.088Z,1007.86
2018-02-04T16:14:01.096Z,1007.91
2018-02-04T16:15:01.038Z,1007.91
2018-02-04T16:16:01.017Z,1007.90
2018-02-04T16:17:00.997Z,1007.90
2018-02-04T16:18:00.982Z,1007.89
2018-02-04T16:19:00.935Z,1007.88
2018-02-04T16:20:00.913Z,1007.90
2018-02-04T16:21:00.890Z,1007.92
2018-02-04T16:22:00.880Z,1007.92
2018-02-04T16:23:00.875Z,1007.94
2018-02-04T16:24:00.810Z,1007.96
2018-02-04T16:25:00.823Z,1007.99
2018-02-04T16:26:00.792Z,1007.96
2018-02-04T16:27:00.735Z,1007.98
2018-02-04T16:28:00.738Z,1007.95
2018-02-04T16:29:00.711Z,1007.98
2018-02-04T16:30:00.696Z,1007.95
2018-02-04T16:31:00.643Z,1007.96
2018-02-04T16:32:00.614Z,1007.97
2018-02-04T16:33:00.589Z,1007.99
2018-02-04T16:34:00.613Z,1007.96
2018-02-04T16:35:00.551Z,1007.92
2018-02-04T16:36:00.521Z,1007.94
2018-02-04T16:37:00.495Z,1007.95
2018-02-04T16:38:00.491Z,1007.93
2018-02-04T16:39:00.466Z,1007.93
2018-02-04T16:40:00.427Z,1007.94
2018-02-04T16:41:00.424Z,1007.94
2018-02-04T16:42:00.377Z,1007.95
2018-02-04T16:43:00.389Z,1007.93
2018-02-04T16:44:00.332Z,1007.94
2018-02-04T16:45:00.287Z,1007.95
2018-02-04T16:46:00.267Z,1007.93
2018-02-04T16:47:00.248Z,1007.96
2018-02-04T16:48:00.215Z,1007.93
2018-02-04T16:49:00.250Z,1007.95
2018-02-04T16:50:00.175Z,1007.94
2018-02-04T16:51:00.169Z,1007.99
2018-02-04T16:52:00.152Z,1007.99
2018-02-04T16:53:00.127Z,1008.02
2018-02-04T16:54:00.067Z,1008.04
2018-02-04T16:55:00.046Z,1008.07
2018-02-04T16:56:00.022Z,1008.05
2018-02-04T16:57:00.001Z,1008.09
2018-02-04T16:57:59.981Z,1008.08
2018-02-04T16:58:59.944Z,1008.11
2018-02-04T16:59:59.916Z,1008.14
2018-02-04T17:00:59.889Z,1008.12
2018-02-04T17:01:59.885Z,1008.13
2018-02-04T17:02:59.844Z,1008.13
2018-02-04T17:03:59.816Z,1008.11
2018-02-04T17:04:59.818Z,1008.16
2018-02-04T17:05:59.830Z,1008.18
2018-02-04T17:08:21.821Z,1008.18
2018-02-04T17:09:21.840Z,1008.21
2018-02-04T17:11:26.226Z,1008.23
2018-02-04T17:12:16.083Z,1008.24
2018-02-04T17:13:16.058Z,1008.29
2018-02-04T17:14:16.034Z,1008.26
2018-02-04T17:15:16.024Z,1008.25
2018-02-04T17:16:15.975Z,1008.28
2018-02-04T17:17:15.957Z,1008.22
2018-02-04T17:18:15.938Z,1008.25
2018-02-04T17:19:15.903Z,1008.28
2018-02-04T17:20:15.889Z,1008.29
2018-02-04T17:21:15.848Z,1008.28
2018-02-04T17:22:15.834Z,1008.27
2018-02-04T17:24:48.939Z,1008.31
2018-02-04T17:25:38.802Z,1008.32
2018-02-04T17:28:01.892Z,1008.29
2018-02-04T17:30:33.940Z,1008.33
2018-02-04T17:32:56.924Z,1008.30
2018-02-04T17:33:46.892Z,1008.28
2018-02-04T17:34:46.764Z,1008.31
2018-02-04T17:37:19.857Z,1008.30
2018-02-04T17:39:42.907Z,1008.25
2018-02-04T17:40:32.808Z,1008.30
2018-02-04T17:41:32.718Z,1008.29
2018-02-04T17:42:32.686Z,1008.30
2018-02-04T17:43:32.676Z,1008.27
2018-02-04T17:44:32.662Z,1008.32
2018-02-04T17:45:32.661Z,1008.31
2018-02-04T17:46:32.606Z,1008.32
2018-02-04T17:47:32.573Z,1008.32
2018-02-04T17:48:32.560Z,1008.37
2018-02-04T17:49:32.545Z,1008.39
2018-02-04T17:50:32.513Z,1008.41
2018-02-04T17:51:32.462Z,1008.41
2018-02-04T17:52:32.475Z,1008.41
2018-02-04T17:53:32.417Z,1008.39
2018-02-04T17:54:32.383Z,1008.45
2018-02-04T17:55:32.390Z,1008.41
2018-02-04T17:56:32.362Z,1008.45
2018-02-04T17:57:39.990Z,1008.46
2018-02-04T17:59:26.692Z,1008.46
2018-02-04T18:00:26.804Z,1008.45
2018-02-04T18:01:26.663Z,1008.49
2018-02-04T18:02:26.606Z,1008.48
2018-02-04T18:03:26.577Z,1008.49
2018-02-04T18:04:26.667Z,1008.49
2018-02-04T18:05:26.521Z,1008.54
2018-02-04T18:06:26.465Z,1008.56
2018-02-04T18:07:26.444Z,1008.56
2018-02-04T18:08:26.414Z,1008.60
2018-02-04T18:09:26.385Z,1008.59
2018-02-04T18:10:26.377Z,1008.60
2018-02-04T18:12:59.468Z,1008.64
2018-02-04T18:15:22.431Z,1008.65
2018-02-04T18:17:35.531Z,1008.70
2018-02-04T18:19:58.347Z,1008.75
2018-02-04T18:22:20.440Z,1008.77
2018-02-04T18:23:20.345Z,1008.78
2018-02-04T18:25:14.719Z,1008.81
2018-02-04T18:26:14.646Z,1008.80
2018-02-04T18:27:14.624Z,1008.83
2018-02-04T18:28:14.594Z,1008.80
2018-02-04T18:30:37.627Z,1008.84
2018-02-04T18:31:37.659Z,1008.82
2018-02-04T18:32:37.592Z,1008.84
2018-02-04T18:33:37.502Z,1008.88
2018-02-04T18:34:37.485Z,1008.85
2018-02-04T18:35:37.480Z,1008.91
2018-02-04T18:38:10.542Z,1008.93
2018-02-04T18:39:00.566Z,1008.96
2018-02-04T18:40:00.406Z,1008.96
2018-02-04T18:41:00.388Z,1008.99
2018-02-04T18:42:00.344Z,1008.97
2018-02-04T18:44:33.701Z,1009.01
2018-02-04T18:46:57.037Z,1009.03
2018-02-04T18:49:23.378Z,1009.05
2018-02-04T18:51:47.318Z,1009.06
2018-02-04T18:52:37.241Z,1009.06
2018-02-04T18:55:00.277Z,1009.10
2018-02-04T18:56:00.163Z,1009.12
2018-02-04T18:57:00.128Z,1009.17
2018-02-04T18:59:30.848Z,1009.16
2018-02-04T19:01:56.191Z,1009.12
2018-02-04T19:02:46.087Z,1009.17
2018-02-04T19:03:46.043Z,1009.18
2018-02-04T19:04:46.031Z,1009.17
2018-02-04T19:05:45.999Z,1009.16
2018-02-04T19:06:45.973Z,1009.21
2018-02-04T19:07:45.968Z,1009.21
2018-02-04T19:08:45.928Z,1009.20
2018-02-04T19:09:45.887Z,1009.23
2018-02-04T19:10:45.900Z,1009.30
2018-02-04T19:11:45.852Z,1009.25
2018-02-04T19:12:45.807Z,1009.34
2018-02-04T19:13:45.794Z,1009.31
2018-02-04T19:14:45.767Z,1009.33
2018-02-04T19:15:45.734Z,1009.32
2018-02-04T19:16:45.704Z,1009.34
2018-02-04T19:17:45.678Z,1009.32
2018-02-04T19:18:45.661Z,1009.31
2018-02-04T19:19:45.658Z,1009.37
2018-02-04T19:20:45.601Z,1009.35
2018-02-04T19:21:45.580Z,1009.39
2018-02-04T19:22:45.556Z,1009.42
2018-02-04T19:23:45.542Z,1009.43
2018-02-04T19:24:45.498Z,1009.42
2018-02-04T19:25:45.478Z,1009.44
2018-02-04T19:26:45.463Z,1009.47
2018-02-04T19:27:45.434Z,1009.49
2018-02-04T19:28:45.409Z,1009.53
2018-02-04T19:29:45.430Z,1009.52
2018-02-04T19:30:45.350Z,1009.54
2018-02-04T19:31:52.993Z,1009.54
2018-02-04T19:33:38.723Z,1009.57
2018-02-04T19:34:38.718Z,1009.56
2018-02-04T19:36:33.062Z,1009.52
2018-02-04T19:37:33.040Z,1009.56
2018-02-04T19:38:32.968Z,1009.55
2018-02-04T19:40:55.995Z,1009.60
2018-02-04T19:41:55.965Z,1009.57
2018-02-04T19:42:55.892Z,1009.57
2018-02-04T19:43:55.898Z,1009.62
2018-02-04T19:44:55.847Z,1009.59
2018-02-04T19:45:55.851Z,1009.64
2018-02-04T19:46:55.810Z,1009.66
2018-02-04T19:47:55.757Z,1009.64
2018-02-04T19:48:55.745Z,1009.67
2018-02-04T19:49:55.706Z,1009.66
2018-02-04T19:50:55.698Z,1009.69
2018-02-04T19:51:55.689Z,1009.69
2018-02-04T19:52:55.645Z,1009.69
2018-02-04T19:53:55.604Z,1009.72
2018-02-04T19:54:55.577Z,1009.70
2018-02-04T19:55:55.549Z,1009.69
2018-02-04T19:56:55.544Z,1009.73
2018-02-04T19:57:55.506Z,1009.73
2018-02-04T19:58:55.480Z,1009.73
2018-02-04T19:59:55.467Z,1009.72
2018-02-04T20:00:55.423Z,1009.75
2018-02-04T20:01:55.392Z,1009.72
2018-02-04T20:02:55.367Z,1009.70
2018-02-04T20:03:55.374Z,1009.74
2018-02-04T20:04:55.332Z,1009.78
2018-02-04T20:05:55.298Z,1009.75
2018-02-04T20:06:55.265Z,1009.81
2018-02-04T20:07:55.276Z,1009.79
2018-02-04T20:08:55.210Z,1009.77
2018-02-04T20:09:55.190Z,1009.77
2018-02-04T20:10:55.160Z,1009.77
2018-02-04T20:11:55.141Z,1009.77
2018-02-04T20:12:55.126Z,1009.75
2018-02-04T20:13:55.080Z,1009.80
2018-02-04T20:14:55.053Z,1009.78
2018-02-04T20:15:55.048Z,1009.81
2018-02-04T20:16:55.003Z,1009.80
2018-02-04T20:17:54.991Z,1009.85
2018-02-04T20:18:54.950Z,1009.79
2018-02-04T20:19:54.939Z,1009.85
2018-02-04T20:20:54.931Z,1009.86
2018-02-04T20:21:54.876Z,1009.86
2018-02-04T20:22:54.888Z,1009.95
2018-02-04T20:23:54.815Z,1009.91
2018-02-04T20:24:54.790Z,1009.91
2018-02-04T20:25:54.766Z,1009.95
2018-02-04T20:26:54.740Z,1009.94
2018-02-04T20:27:54.718Z,1009.95
2018-02-04T20:28:54.685Z,1009.95
2018-02-04T20:29:54.663Z,1009.97
2018-02-04T20:30:54.642Z,1009.97
2018-02-04T20:31:54.631Z,1010.02
2018-02-04T20:32:54.589Z,1010.03
2018-02-04T20:33:54.554Z,1010.05
2018-02-04T20:34:54.525Z,1010.06
2018-02-04T20:35:54.501Z,1010.08
2018-02-04T20:36:54.482Z,1010.11
2018-02-04T20:37:54.463Z,1010.09
2018-02-04T20:38:54.422Z,1010.09
2018-02-04T20:39:54.399Z,1010.10
2018-02-04T20:40:54.396Z,1010.14
2018-02-04T20:41:54.371Z,1010.06
2018-02-04T20:42:54.361Z,1010.11
2018-02-04T20:43:54.296Z,1010.08
2018-02-04T20:44:55.057Z,1010.07
2018-02-04T20:45:54.266Z,1010.06
2018-02-04T20:46:54.228Z,1010.06
2018-02-04T20:47:54.224Z,1010.12
2018-02-04T20:48:54.165Z,1010.15
2018-02-04T20:49:54.133Z,1010.18
2018-02-04T20:50:54.146Z,1010.19
2018-02-04T20:51:54.080Z,1010.17
2018-02-04T20:52:54.054Z,1010.17
2018-02-04T20:53:54.036Z,1010.15
2018-02-04T20:54:54.019Z,1010.16
2018-02-04T20:55:53.973Z,1010.14
2018-02-04T20:56:53.951Z,1010.21
2018-02-04T20:57:53.933Z,1010.19
2018-02-04T20:58:53.919Z,1010.24
2018-02-04T20:59:53.867Z,1010.26
2018-02-04T21:00:53.874Z,1010.27
2018-02-04T21:01:53.823Z,1010.31
2018-02-04T21:02:53.792Z,1010.28
2018-02-04T21:03:53.792Z,1010.28
2018-02-04T21:04:53.775Z,1010.30
2018-02-04T21:05:53.734Z,1010.29
2018-02-04T21:08:25.852Z,1010.34
2018-02-04T21:09:16.726Z,1010.37
2018-02-04T21:10:16.688Z,1010.34
2018-02-04T21:11:16.637Z,1010.36
2018-02-04T21:12:16.604Z,1010.35
2018-02-04T21:13:16.574Z,1010.40
2018-02-04T21:14:16.554Z,1010.38
2018-02-04T21:15:16.539Z,1010.42
2018-02-04T21:16:17.514Z,1010.45
2018-02-04T21:17:16.466Z,1010.39
2018-02-04T21:18:16.454Z,1010.38
2018-02-04T21:19:16.415Z,1010.37
2018-02-04T21:20:16.395Z,1010.36
2018-02-04T21:21:16.861Z,1010.34
2018-02-04T21:22:16.350Z,1010.34